aviador You're here:

OIFM Decoded Metar

ESFAHAN in IRAN
Report Time2017-08-19 01:30:00
UTC Time2017-08-19 01:50:57
Flight Rules vfr VFR
Wind340° at 04 kt
W.Decomp.*RWY 26: 0.8 kt HW 3.9 kt RCW
W.Rank340° ranks 21
Current wind is below 340° avg. (6.6)
Visibility9999 m
Phenomena:N/A
Clouds:Few 040 Hf
Expected CloudBase > 8,000 ft AGL from Temp-Dew spread
CeilingNone
Temp19°C (ISA +14)
Dew Point-1°C (26% RH)
AAT15.4°C
QNH1017 hPa
Density Alt6,631 ft
Elevation5,059 ft
Report Wrong Elevation
Raw Report
METAR OIFM 190130Z 34004KT 9999 FEW040 19/M01 Q1017 A3004=

Extra information for OIFM:More info

Metar Taf Metar & Taf Last 4 Metars F.Rules Stats Wind Profile Meteogram Temp Stats Airport Information Weather charts Add Link Nearby VenuesMetar ALERT Operation Metar Decoded Social comments